This is the latest recevied weather packets stored in our database for station/object KE9ADS. If no packets are shown the sender has not sent any weather packets the latest 10 day(s).
| Time | Temp. | Humidity | Pressure | Rain* | Wind** | Luminosity | Snow |
|---|---|---|---|---|---|---|---|
| 1777604636 | 8.33° C | 86% | 1017.9 hPa | 0 mm | - | 0 W/m² | - |
| 1777604032 | 7.78° C | 86% | 1017.8 hPa | 0 mm | - | 0 W/m² | - |
| 1777603432 | 7.78° C | 85% | 1018 hPa | 0 mm | - | 0 W/m² | - |
| 1777602829 | 8.33° C | 84% | 1017.7 hPa | 0 mm | - | 0 W/m² | - |
| 1777602227 | 8.33° C | 83% | 1017.8 hPa | 0 mm | - | 0 W/m² | - |
| 1777601623 | 8.33° C | 82% | 1017.8 hPa | 0 mm | - | 0 W/m² | - |
| 1777601021 | 8.89° C | 81% | 1017.8 hPa | 0 mm | - | 0 W/m² | - |
| 1777600420 | 9.44° C | 79% | 1017.8 hPa | 0 mm | - | 0 W/m² | - |
| 1777599817 | 9.44° C | 77% | 1017.5 hPa | 0 mm | - | 0 W/m² | - |
| 1777599217 | 9.44° C | 78% | 1017.6 hPa | 0 mm | - | 0 W/m² | - |
| 1777598616 | 9.44° C | 78% | 1017.5 hPa | 0 mm | - | 0 W/m² | - |
| 1777598015 | 10° C | 76% | 1017.4 hPa | 0 mm | - | 0 W/m² | - |
| 1777597411 | 10° C | 74% | 1017.4 hPa | 0 mm | - | 1 W/m² | - |
| 1777596808 | 10.56° C | 72% | 1017.3 hPa | 0 mm | - | 2 W/m² | - |
| 1777596207 | 10.56° C | 71% | 1017.5 hPa | 0 mm | - | 7 W/m² | - |
| 1777595604 | 10.56° C | 72% | 1017.4 hPa | 0 mm | - | 4 W/m² | - |
| 1777595002 | 10.56° C | 73% | 1017.4 hPa | 0 mm | - | 6 W/m² | - |
| 1777594401 | 10.56° C | 73% | 1017.3 hPa | 0 mm | - | 16 W/m² | - |
| 1777593799 | 10.56° C | 74% | 1017.3 hPa | 0 mm | - | 16 W/m² | - |
| 1777593195 | 10.56° C | 73% | 1017.2 hPa | 0 mm | - | 26 W/m² | - |
| 1777592590 | 10.56° C | 72% | 1017 hPa | 0 mm | - | 29 W/m² | - |
| 1777591988 | 10.56° C | 72% | 1017.1 hPa | 0 mm | - | 28 W/m² | - |
| 1777591386 | 10.56° C | 74% | 1016.9 hPa | 0 mm | - | 61 W/m² | - |
| 1777590784 | 10.56° C | 75% | 1017.1 hPa | 0 mm | - | 60 W/m² | - |
| 1777590183 | 10.56° C | 79% | 1017 hPa | 0 mm | - | 97 W/m² | - |
* Rain latest hour (hover to see other rain measurements)
** Current wind speed in m/s (hover to see current wind gust speed)